Time;durP1;ratioP1;P1;durP2;ratioP2;P2;SDS_P1;SDS_P2;PMS_P1;PMS_P2;Temp;Humidity;BMP_temperature;BMP_pressure;BME280_temperature;BME280_humidity;BME280_pressure;Samples;Min_cycle;Max_cycle;Signal;HPM_P1;HPM_P2
2021/01/28 00:00:40;;;;;;;;;;;;;;;5.25;100.00;100110.38;5054146;28;19925;-80
2021/01/28 00:03:08;;;;;;;;;;;;;;;5.26;100.00;100109.19;5053890;28;19931;-79
2021/01/28 00:05:35;;;;;;;;;;;;;;;5.26;100.00;100100.88;5052871;28;19924;-80
2021/01/28 00:08:02;;;;;;;;;;;;;;;5.24;100.00;100100.44;5052853;28;20015;-80
2021/01/28 00:10:30;;;;;;;;;;;;;;;5.24;100.00;100092.13;5052779;28;20105;-80
2021/01/28 00:12:57;;;;;;;;;;;;;;;5.21;100.00;100081.75;5053807;28;19924;-80
2021/01/28 00:15:25;;;;;;;;;;;;;;;5.22;100.00;100079.81;5053936;28;20268;-80
2021/01/28 00:17:52;;;;;;;;;;;;;;;5.24;100.00;100071.94;5052679;28;19964;-80
2021/01/28 00:20:22;;;;;;;;;;;;;;;5.26;100.00;100067.63;5053772;28;19924;-80
2021/01/28 00:22:48;;;;;;;;;;;;;;;5.28;100.00;100057.00;5052761;28;19925;-80
2021/01/28 00:25:16;;;;;;;;;;;;;;;5.25;100.00;100057.72;5053721;28;19929;-80
2021/01/28 00:27:43;;;;;;;;;;;;;;;5.22;100.00;100038.22;5053992;28;19931;-79
2021/01/28 00:30:15;;;;;;;;;;;;;;;5.19;100.00;100031.47;5053985;28;19955;-80
2021/01/28 00:32:42;;;;;;;;;;;;;;;5.19;100.00;100014.03;5053777;28;20047;-80
2021/01/28 00:35:09;;;;;;;;;;;;;;;5.17;100.00;100008.84;5053712;28;20015;-80
2021/01/28 00:37:36;;;;;;;;;;;;;;;5.22;100.00;99991.13;5053889;28;19935;-80
2021/01/28 00:40:06;;;;;;;;;;;;;;;5.18;100.00;99985.50;5052423;28;20330;-80
2021/01/28 00:42:33;;;;;;;;;;;;;;;5.17;100.00;99964.53;5053727;28;19925;-80
2021/01/28 00:45:02;;;;;;;;;;;;;;;5.17;100.00;99967.28;5053982;28;19932;-80
2021/01/28 00:47:29;;;;;;;;;;;;;;;5.16;100.00;99948.25;5054178;28;19928;-80
2021/01/28 00:49:55;;;;;;;;;;;;;;;5.19;100.00;99942.81;5052654;28;19928;-80
2021/01/28 00:52:22;;;;;;;;;;;;;;;5.23;100.00;99938.13;5052418;28;19932;-80
2021/01/28 00:54:49;;;;;;;;;;;;;;;5.23;100.00;99915.13;5052433;28;19925;-80
2021/01/28 00:57:19;;;;;;;;;;;;;;;5.22;100.00;99903.28;5052892;28;19979;-80
2021/01/28 00:59:45;;;;;;;;;;;;;;;5.21;100.00;99890.56;5052533;28;20407;-80
2021/01/28 01:02:12;;;;;;;;;;;;;;;5.18;100.00;99879.44;5052268;28;20249;-80
2021/01/28 01:04:39;;;;;;;;;;;;;;;5.16;100.00;99865.16;5052551;28;19956;-80
2021/01/28 01:07:05;;;;;;;;;;;;;;;5.17;100.00;99855.66;5053469;28;20292;-80
2021/01/28 01:09:32;;;;;;;;;;;;;;;5.08;100.00;99844.84;5053641;28;19924;-80
2021/01/28 01:11:59;;;;;;;;;;;;;;;5.06;100.00;99810.34;5035786;28;19931;-80
2021/01/28 01:14:26;;;;;;;;;;;;;;;5.02;100.00;99793.69;5052498;28;19990;-80
2021/01/28 01:16:53;;;;;;;;;;;;;;;4.99;100.00;99779.75;5035666;28;19932;-81
2021/01/28 01:19:24;;;;;;;;;;;;;;;4.98;100.00;99767.88;5052830;28;20272;-81
2021/01/28 01:22:01;;;;;;;;;;;;;;;4.97;100.00;99757.16;5054559;28;20288;-80
2021/01/28 01:24:28;;;;;;;;;;;;;;;4.94;100.00;99752.34;5039626;28;20299;-80
2021/01/28 01:26:55;;;;;;;;;;;;;;;4.95;100.00;99754.75;5057133;28;20394;-80
2021/01/28 01:29:23;;;;;;;;;;;;;;;4.94;100.00;99733.78;5055848;28;20565;-80
2021/01/28 01:32:11;;;;;;;;;;;;;;;4.94;100.00;99722.72;5039280;28;20378;-80
2021/01/28 01:34:56;;;;;;;;;;;;;;;4.95;100.00;99723.50;5054946;28;19924;-80
2021/01/28 01:37:23;;;;;;;;;;;;;;;4.94;100.00;99716.34;5055236;28;19925;-80
2021/01/28 01:39:53;;;;;;;;;;;;;;;4.93;100.00;99712.81;5055084;28;19932;-81
2021/01/28 01:42:20;;;;;;;;;;;;;;;4.93;100.00;99712.81;5038807;28;19931;-80
2021/01/28 01:44:49;;;;;;;;;;;;;;;4.93;100.00;99698.97;5055399;28;19994;-80
2021/01/28 01:47:48;;;;;;;;;;;;;;;4.93;100.00;99668.50;5055424;28;20352;-80
2021/01/28 01:50:43;;;;;;;;;;;;;;;4.92;100.00;99661.34;5055768;28;19982;-80
2021/01/28 01:53:16;;;;;;;;;;;;;;;4.94;100.00;99625.78;5055545;28;20279;-80
2021/01/28 01:55:50;;;;;;;;;;;;;;;4.94;100.00;99598.09;5055328;28;19925;-80
2021/01/28 01:58:22;;;;;;;;;;;;;;;4.93;100.00;99568.81;5072101;28;20360;-80
2021/01/28 02:01:07;;;;;;;;;;;;;;;4.92;100.00;99561.66;5055191;28;19998;-80
2021/01/28 02:03:55;;;;;;;;;;;;;;;4.92;100.00;99550.56;5056281;28;19925;-81
2021/01/28 02:06:51;;;;;;;;;;;;;;;4.90;100.00;99549.34;5056064;28;19925;-80
2021/01/28 02:09:36;;;;;;;;;;;;;;;4.89;100.00;99548.56;5056271;28;20372;-80
2021/01/28 02:12:18;;;;;;;;;;;;;;;4.88;100.00;99555.28;5054991;28;20005;-80
2021/01/28 02:14:54;;;;;;;;;;;;;;;4.87;100.00;99592.44;5037987;28;20380;-80
2021/01/28 02:17:32;;;;;;;;;;;;;;;4.88;100.00;99615.38;5055051;28;19925;-80
2021/01/28 02:20:46;;;;;;;;;;;;;;;4.88;100.00;99654.97;5033553;28;20438;-80
2021/01/28 02:23:38;;;;;;;;;;;;;;;4.88;100.00;99677.09;5033812;28;20043;-80
2021/01/28 02:26:07;;;;;;;;;;;;;;;4.89;100.00;99705.63;5017220;28;19972;-80
2021/01/28 02:28:35;;;;;;;;;;;;;;;4.85;100.00;99719.38;5033757;28;20012;-82
2021/01/28 02:31:04;;;;;;;;;;;;;;;4.84;100.00;99723.34;5033546;28;20011;-81
2021/01/28 02:33:36;;;;;;;;;;;;;;;4.83;100.00;99716.19;5017162;28;19978;-81
2021/01/28 02:36:40;;;;;;;;;;;;;;;4.83;100.00;99693.25;5032231;28;19947;-81
2021/01/28 02:39:28;;;;;;;;;;;;;;;4.81;100.00;99677.00;5033462;28;20002;-81
2021/01/28 02:41:57;;;;;;;;;;;;;;;4.82;100.00;99656.44;5001022;28;19925;-81
2021/01/28 02:44:25;;;;;;;;;;;;;;;4.82;100.00;99669.47;4984783;28;19929;-81
2021/01/28 02:47:24;;;;;;;;;;;;;;;4.81;100.00;99642.97;5032746;28;20018;-81
2021/01/28 02:50:12;;;;;;;;;;;;;;;4.80;100.00;99617.25;5016752;28;19926;-81
2021/01/28 02:52:43;;;;;;;;;;;;;;;4.80;100.00;99594.31;5054132;28;19928;-80
2021/01/28 02:55:15;;;;;;;;;;;;;;;4.79;100.00;99517.94;5037484;28;19924;-81
2021/01/28 02:57:42;;;;;;;;;;;;;;;4.79;100.00;99488.31;5037325;28;19925;-81
2021/01/28 03:00:14;;;;;;;;;;;;;;;4.79;100.00;99480.00;5053882;28;19925;-80
2021/01/28 03:02:40;;;;;;;;;;;;;;;4.80;100.00;99453.13;5037116;28;19931;-81
2021/01/28 03:05:08;;;;;;;;;;;;;;;4.83;100.00;99433.75;5053574;28;19925;-80
2021/01/28 03:07:41;;;;;;;;;;;;;;;4.80;100.00;99420.66;5054886;28;19925;-80
2021/01/28 03:10:08;;;;;;;;;;;;;;;4.82;100.00;99406.44;5053627;28;19925;-80
2021/01/28 03:12:44;;;;;;;;;;;;;;;4.83;100.00;99386.69;5053429;28;19932;-81
2021/01/28 03:15:23;;;;;;;;;;;;;;;4.80;100.00;99359.75;5071956;28;19925;-78
2021/01/28 03:17:51;;;;;;;;;;;;;;;4.77;100.00;99338.38;5053444;28;19925;-81
2021/01/28 03:20:19;;;;;;;;;;;;;;;4.77;100.00;99299.63;5053486;28;19925;-81
2021/01/28 03:22:46;;;;;;;;;;;;;;;4.74;100.00;99277.44;5053463;28;19929;-81
2021/01/28 03:25:36;;;;;;;;;;;;;;;4.74;100.00;99253.31;5032441;28;20015;-81
2021/01/28 03:28:04;;;;;;;;;;;;;;;4.70;100.00;99241.44;5032396;28;20573;-81
2021/01/28 03:30:34;;;;;;;;;;;;;;;4.68;100.00;99246.53;5032283;28;19925;-81
2021/01/28 03:33:02;;;;;;;;;;;;;;;4.69;100.00;99247.34;5032261;28;20003;-81
2021/01/28 03:35:29;;;;;;;;;;;;;;;4.69;100.00;99226.00;5032547;28;19937;-80
2021/01/28 03:38:00;;;;;;;;;;;;;;;4.65;100.00;99211.31;5015679;28;19925;-81
2021/01/28 03:40:28;;;;;;;;;;;;;;;4.67;100.00;99195.13;5032171;28;19932;-81
2021/01/28 03:42:58;;;;;;;;;;;;;;;4.68;100.00;99171.81;5032164;28;19932;-81
2021/01/28 03:45:26;;;;;;;;;;;;;;;4.69;100.00;99154.03;5015360;28;19925;-81
2021/01/28 03:48:00;;;;;;;;;;;;;;;4.68;100.00;99137.81;5032008;28;19925;-81
2021/01/28 03:50:45;;;;;;;;;;;;;;;4.66;100.00;99121.59;5031862;28;19925;-81
2021/01/28 03:53:21;;;;;;;;;;;;;;;4.69;100.00;99139.38;5032107;28;19989;-81
2021/01/28 03:55:59;;;;;;;;;;;;;;;4.74;100.00;99123.22;5031935;28;19980;-81
2021/01/28 03:58:29;;;;;;;;;;;;;;;4.75;100.00;99097.16;4983059;28;20280;-81
2021/01/28 04:01:34;;;;;;;;;;;;;;;4.74;100.00;99090.00;5020366;28;19948;-80
2021/01/28 04:04:20;;;;;;;;;;;;;;;4.74;100.00;99081.69;5052808;28;20276;-81
2021/01/28 04:07:25;;;;;;;;;;;;;;;4.74;100.00;99069.84;5037284;28;19925;-81
2021/01/28 04:09:52;;;;;;;;;;;;;;;4.72;100.00;99053.63;5052591;28;19928;-81
2021/01/28 04:12:24;;;;;;;;;;;;;;;4.74;100.00;99034.63;5052664;28;19925;-80
2021/01/28 04:15:16;;;;;;;;;;;;;;;4.73;100.00;99019.22;5044472;28;20268;-81
2021/01/28 04:17:47;;;;;;;;;;;;;;;4.71;100.00;99002.19;5052442;28;19960;-81
2021/01/28 04:20:23;;;;;;;;;;;;;;;4.70;100.00;98988.75;5052606;28;20395;-80
2021/01/28 04:23:05;;;;;;;;;;;;;;;4.70;100.00;98985.97;5052778;28;20071;-81
2021/01/28 04:26:01;;;;;;;;;;;;;;;4.69;100.00;98954.75;5052525;28;20074;-81
2021/01/28 04:28:30;;;;;;;;;;;;;;;4.68;100.00;98942.06;5036281;28;19928;-81
2021/01/28 04:31:06;;;;;;;;;;;;;;;4.72;100.00;98959.53;5052453;28;20356;-81
2021/01/28 04:33:36;;;;;;;;;;;;;;;4.74;100.00;98948.84;5036435;28;20295;-81
2021/01/28 04:36:14;;;;;;;;;;;;;;;4.69;100.00;98917.97;5052495;28;20368;-81
2021/01/28 04:38:51;;;;;;;;;;;;;;;4.66;100.00;98905.72;5035926;28;19924;-81
2021/01/28 04:41:19;;;;;;;;;;;;;;;4.65;100.00;98884.75;5053516;28;19975;-81
2021/01/28 04:43:48;;;;;;;;;;;;;;;4.65;100.00;98876.44;5052472;28;20499;-80
2021/01/28 04:46:37;;;;;;;;;;;;;;;4.63;100.00;98862.22;5052429;28;20067;-81
2021/01/28 04:49:24;;;;;;;;;;;;;;;4.60;100.00;98862.19;5053720;28;19937;-81
2021/01/28 04:52:18;;;;;;;;;;;;;;;4.61;100.00;98853.50;5044895;28;20023;-81
2021/01/28 04:55:07;;;;;;;;;;;;;;;4.59;100.00;98828.19;5052112;28;19932;-81
2021/01/28 04:57:41;;;;;;;;;;;;;;;4.58;100.00;98820.28;5055841;28;20360;-80
2021/01/28 05:00:08;;;;;;;;;;;;;;;4.56;100.00;98806.81;5055985;28;19925;-80
2021/01/28 05:02:41;;;;;;;;;;;;;;;4.59;100.00;98800.50;5056229;28;20011;-81
2021/01/28 05:05:33;;;;;;;;;;;;;;;4.56;100.00;98784.69;5055925;28;19925;-81
2021/01/28 05:08:26;;;;;;;;;;;;;;;4.45;100.00;98745.16;5056002;28;19929;-81
2021/01/28 05:11:27;;;;;;;;;;;;;;;4.54;100.00;98751.09;5035008;28;20364;-81
2021/01/28 05:14:18;;;;;;;;;;;;;;;4.53;100.00;98752.28;5005096;28;19972;-81
2021/01/28 05:16:52;;;;;;;;;;;;;;;4.55;100.00;98765.72;5034764;28;19987;-81
2021/01/28 05:19:27;;;;;;;;;;;;;;;4.59;100.00;98766.53;5035115;28;19925;-80
2021/01/28 05:22:10;;;;;;;;;;;;;;;4.55;100.00;98754.66;5018512;28;20380;-80
2021/01/28 05:24:56;;;;;;;;;;;;;;;4.52;100.00;98753.47;5034741;28;19925;-80
2021/01/28 05:27:33;;;;;;;;;;;;;;;4.53;100.00;98746.72;5018278;28;19925;-80
2021/01/28 05:30:07;;;;;;;;;;;;;;;4.49;100.00;98745.13;5034481;28;19929;-81
2021/01/28 05:32:37;;;;;;;;;;;;;;;4.46;100.00;98735.66;5001939;28;20027;-80
2021/01/28 05:35:26;;;;;;;;;;;;;;;4.45;100.00;98728.56;5020777;28;19929;-81
2021/01/28 05:38:27;;;;;;;;;;;;;;;4.46;100.00;98724.59;5028507;28;20404;-80
2021/01/28 05:41:38;;;;;;;;;;;;;;;4.46;100.00;98716.28;5031552;28;19948;-80
2021/01/28 05:44:24;;;;;;;;;;;;;;;4.45;100.00;98702.84;5034338;28;19932;-81
2021/01/28 05:47:01;;;;;;;;;;;;;;;4.43;100.00;98691.38;5033372;28;19933;-81
2021/01/28 05:49:51;;;;;;;;;;;;;;;4.41;100.00;98679.94;5055198;28;19925;-80
2021/01/28 05:52:24;;;;;;;;;;;;;;;4.43;100.00;98681.13;5056709;28;19931;-80
2021/01/28 05:55:05;;;;;;;;;;;;;;;4.43;100.00;98675.59;5055263;28;19932;-80
2021/01/28 05:57:41;;;;;;;;;;;;;;;4.43;100.00;98652.66;5055007;28;19956;-80
2021/01/28 06:00:26;;;;;;;;;;;;;;;4.41;100.00;98641.22;5055190;28;19929;-80
2021/01/28 06:03:06;;;;;;;;;;;;;;;4.40;100.00;98609.97;5038553;28;19925;-81
2021/01/28 06:05:59;;;;;;;;;;;;;;;4.39;100.00;98602.84;5047561;28;19928;-81
2021/01/28 06:08:47;;;;;;;;;;;;;;;4.41;100.00;98606.00;5038095;28;19932;-80
2021/01/28 06:11:23;;;;;;;;;;;;;;;4.66;100.00;98639.25;5055237;28;20024;-80
2021/01/28 06:14:01;;;;;;;;;;;;;;;4.73;100.00;98667.72;5037997;28;20316;-79
2021/01/28 06:17:04;;;;;;;;;;;;;;;4.60;100.00;98619.50;5054768;28;19928;-80
2021/01/28 06:20:00;;;;;;;;;;;;;;;4.48;100.00;98600.50;5055757;28;19925;-80
2021/01/28 06:22:51;;;;;;;;;;;;;;;4.43;100.00;98592.59;5054480;28;19959;-81
2021/01/28 06:25:40;;;;;;;;;;;;;;;4.36;100.00;98578.72;5049302;28;19932;-81
2021/01/28 06:28:14;;;;;;;;;;;;;;;4.34;100.00;98578.34;5055711;28;20016;-80
2021/01/28 06:30:47;;;;;;;;;;;;;;;4.34;100.00;98580.31;5054590;28;20023;-81
2021/01/28 06:33:50;;;;;;;;;;;;;;;4.36;100.00;98575.97;5055437;28;20283;-80
2021/01/28 06:36:49;;;;;;;;;;;;;;;4.37;100.00;98580.34;5055261;28;20361;-80
2021/01/28 06:39:34;;;;;;;;;;;;;;;4.39;100.00;98580.72;5054381;28;19931;-80
2021/01/28 06:42:28;;;;;;;;;;;;;;;4.39;100.00;98580.72;5055386;28;20067;-80
2021/01/28 06:45:21;;;;;;;;;;;;;;;4.37;100.00;98558.22;5054350;28;19925;-81
2021/01/28 06:48:03;;;;;;;;;;;;;;;4.29;100.00;98473.66;5037583;28;20005;-80
2021/01/28 06:51:00;;;;;;;;;;;;;;;4.37;100.00;98502.09;5037413;28;19979;-80
2021/01/28 06:53:49;;;;;;;;;;;;;;;4.37;100.00;98505.66;5054295;28;19925;-81
2021/01/28 06:56:25;;;;;;;;;;;;;;;4.33;100.00;98482.72;5053708;28;19929;-78
2021/01/28 06:59:25;;;;;;;;;;;;;;;4.28;100.00;98462.97;5054046;28;19935;-83
2021/01/28 07:02:14;;;;;;;;;;;;;;;4.28;100.00;98457.44;5053945;28;20368;-81
2021/01/28 07:04:59;;;;;;;;;;;;;;;4.32;100.00;98469.28;5053819;28;19925;-80
2021/01/28 07:07:37;;;;;;;;;;;;;;;4.31;100.00;98464.97;5053869;28;19929;-83
2021/01/28 07:10:37;;;;;;;;;;;;;;;4.31;100.00;98465.75;5045810;28;19929;-82
2021/01/28 07:13:29;;;;;;;;;;;;;;;4.33;100.00;98449.53;5053969;28;19925;-82
2021/01/28 07:16:19;;;;;;;;;;;;;;;4.32;100.00;98434.13;5037501;28;19925;-82
2021/01/28 07:18:48;;;;;;;;;;;;;;;4.38;100.00;98424.25;5069411;28;20154;-82
2021/01/28 07:21:35;;;;;;;;;;;;;;;4.38;100.00;98421.47;5054064;28;19974;-81
2021/01/28 07:24:26;;;;;;;;;;;;;;;4.34;100.00;98395.81;5024229;28;20269;-82
2021/01/28 07:26:53;;;;;;;;;;;;;;;4.30;100.00;98389.50;5055077;28;19924;-82
2021/01/28 07:29:31;;;;;;;;;;;;;;;4.30;100.00;98383.97;5055016;28;19988;-81
2021/01/28 07:31:58;;;;;;;;;;;;;;;4.26;100.00;98387.91;5054991;28;19925;-82
2021/01/28 07:34:36;;;;;;;;;;;;;;;4.23;100.00;98372.91;5053648;28;20026;-82
2021/01/28 07:37:25;;;;;;;;;;;;;;;4.23;100.00;98361.84;5036844;28;19924;-81
2021/01/28 07:40:10;;;;;;;;;;;;;;;4.24;100.00;98352.38;5054144;28;20023;-81
2021/01/28 07:43:04;;;;;;;;;;;;;;;4.24;100.00;98355.13;5054303;28;20391;-81
2021/01/28 07:45:36;;;;;;;;;;;;;;;4.24;100.00;98340.53;5054528;28;19933;-82
2021/01/28 07:48:29;;;;;;;;;;;;;;;4.28;100.00;98339.34;5053344;28;20288;-81
2021/01/28 07:51:29;;;;;;;;;;;;;;;4.23;100.00;98330.66;5053519;28;19925;-81
2021/01/28 07:54:03;;;;;;;;;;;;;;;4.32;100.00;98331.81;5054375;28;20427;-81
2021/01/28 07:56:35;;;;;;;;;;;;;;;4.34;100.00;98318.38;5053569;28;20361;-82
2021/01/28 07:59:08;;;;;;;;;;;;;;;4.37;100.00;98316.78;5054393;28;19931;-82
2021/01/28 08:01:36;;;;;;;;;;;;;;;4.38;100.00;98307.28;5054765;28;19939;-82
2021/01/28 08:04:04;;;;;;;;;;;;;;;4.40;100.00;98311.25;5036263;28;19924;-82
2021/01/28 08:06:37;;;;;;;;;;;;;;;4.46;100.00;98317.94;5054129;28;20419;-82
2021/01/28 08:09:14;;;;;;;;;;;;;;;4.43;100.00;98313.22;5053784;28;20403;-82
2021/01/28 08:11:47;;;;;;;;;;;;;;;4.57;100.00;98304.88;5053362;28;19931;-82
2021/01/28 08:14:14;;;;;;;;;;;;;;;4.53;100.00;98297.78;5053175;28;19925;-82
2021/01/28 08:16:47;;;;;;;;;;;;;;;4.46;100.00;98300.53;5052611;28;19925;-82
2021/01/28 08:19:17;;;;;;;;;;;;;;;4.58;100.00;98295.38;5053362;28;19929;-81
2021/01/28 08:21:44;;;;;;;;;;;;;;;4.49;100.00;98289.47;5036581;28;19925;-82
2021/01/28 08:24:15;;;;;;;;;;;;;;;4.48;100.00;98289.88;5053780;28;19986;-82
2021/01/28 08:26:43;;;;;;;;;;;;;;;4.57;100.00;98293.78;5052966;28;20368;-82
2021/01/28 08:29:16;;;;;;;;;;;;;;;4.48;100.00;98284.34;5053061;28;19998;-82
2021/01/28 08:31:42;;;;;;;;;;;;;;;4.50;100.00;98288.28;5057517;28;19924;-81
2021/01/28 08:34:13;;;;;;;;;;;;;;;4.57;100.00;98282.72;5057857;28;20275;-81
2021/01/28 08:36:43;;;;;;;;;;;;;;;4.48;100.00;98268.53;5057733;28;20387;-81
2021/01/28 08:39:12;;;;;;;;;;;;;;;4.49;100.00;98255.47;5057995;28;20001;-81
2021/01/28 08:41:40;;;;;;;;;;;;;;;4.50;100.00;98255.09;5056537;28;19932;-81
2021/01/28 08:44:10;;;;;;;;;;;;;;;4.57;100.00;98255.06;5056604;28;19939;-77
2021/01/28 08:46:40;;;;;;;;;;;;;;;4.59;100.00;98257.44;5057879;28;19987;-81
2021/01/28 08:49:10;;;;;;;;;;;;;;;4.49;100.00;98261.81;5057622;28;19929;-81
2021/01/28 08:51:42;;;;;;;;;;;;;;;4.59;100.00;98274.03;5056140;28;19929;-81
2021/01/28 08:54:14;;;;;;;;;;;;;;;4.66;100.00;98262.91;5057827;28;19932;-81
2021/01/28 08:56:41;;;;;;;;;;;;;;;4.49;100.00;98245.22;5039709;28;20268;-81
2021/01/28 08:59:13;;;;;;;;;;;;;;;4.58;100.00;98245.56;5057315;28;20375;-80
2021/01/28 09:01:41;;;;;;;;;;;;;;;4.64;100.00;98243.16;5039823;28;19925;-81
2021/01/28 09:04:11;;;;;;;;;;;;;;;4.68;100.00;98241.94;5057714;28;19925;-81
2021/01/28 09:06:50;;;;;;;;;;;;;;;4.79;100.00;98250.97;5057401;28;20364;-82
2021/01/28 09:09:22;;;;;;;;;;;;;;;4.78;100.00;98249.41;5057344;28;19929;-81
2021/01/28 09:11:49;;;;;;;;;;;;;;;4.78;100.00;98251.38;5056021;28;20031;-81
2021/01/28 09:14:28;;;;;;;;;;;;;;;4.86;100.00;98239.84;5057066;28;19928;-80
2021/01/28 09:17:05;;;;;;;;;;;;;;;4.82;100.00;98230.78;5057496;28;20378;-88
2021/01/28 09:19:33;;;;;;;;;;;;;;;4.89;100.00;98239.03;5039470;28;19970;-80
2021/01/28 09:22:02;;;;;;;;;;;;;;;4.70;100.00;98231.25;5056815;28;19963;-79
2021/01/28 09:24:35;;;;;;;;;;;;;;;4.76;100.00;98232.41;5057004;28;19925;-80
2021/01/28 09:27:25;;;;;;;;;;;;;;;4.74;100.00;98243.09;5057104;28;19925;-82
2021/01/28 09:29:53;;;;;;;;;;;;;;;4.78;100.00;98232.81;5045083;28;20031;-78
2021/01/28 09:32:22;;;;;;;;;;;;;;;4.88;100.00;98231.13;5052052;28;20015;-79
2021/01/28 09:35:18;;;;;;;;;;;;;;;4.89;100.00;98233.50;5051801;28;19925;-83
2021/01/28 09:38:06;;;;;;;;;;;;;;;4.92;100.00;98227.16;5047213;28;19928;-79
2021/01/28 09:40:39;;;;;;;;;;;;;;;4.91;100.00;98224.78;5052388;28;19929;-79
2021/01/28 09:43:24;;;;;;;;;;;;;;;4.97;100.00;98228.69;5051401;28;19931;-78
2021/01/28 09:46:02;;;;;;;;;;;;;;;4.97;100.00;98221.19;5052156;28;19936;-75
2021/01/28 09:48:29;;;;;;;;;;;;;;;4.92;100.00;98221.63;5052338;28;19924;-79
2021/01/28 09:50:56;;;;;;;;;;;;;;;4.89;100.00;98205.06;5051236;28;19924;-79
2021/01/28 09:53:22;;;;;;;;;;;;;;;4.89;100.00;98222.44;5052853;28;19925;-78
2021/01/28 09:55:51;;;;;;;;;;;;;;;4.92;100.00;98221.63;5049207;28;19925;-79
2021/01/28 09:58:18;;;;;;;;;;;;;;;4.86;100.00;98203.88;5036853;28;19935;-78
2021/01/28 10:00:45;;;;;;;;;;;;;;;4.97;100.00;98206.56;5049786;28;19924;-78
2021/01/28 10:03:13;;;;;;;;;;;;;;;4.91;100.00;98203.44;5051167;28;19928;-78
2021/01/28 10:05:40;;;;;;;;;;;;;;;5.00;100.00;98206.53;5051426;28;19966;-79
2021/01/28 10:08:07;;;;;;;;;;;;;;;4.99;100.00;98210.50;5052169;28;20009;-79
2021/01/28 10:10:34;;;;;;;;;;;;;;;5.05;100.00;98214.41;5051867;28;19948;-79
2021/01/28 10:13:03;;;;;;;;;;;;;;;5.02;100.00;98206.94;5051853;28;20384;-79
2021/01/28 10:15:30;;;;;;;;;;;;;;;5.06;100.00;98215.97;5051876;28;19931;-79
2021/01/28 10:17:57;;;;;;;;;;;;;;;5.01;100.00;98205.34;5067079;28;20345;-79
2021/01/28 10:20:23;;;;;;;;;;;;;;;5.11;100.00;98201.72;5048643;28;19924;-79
2021/01/28 10:22:51;;;;;;;;;;;;;;;5.02;100.00;98204.16;5050949;28;19932;-77
2021/01/28 10:25:19;;;;;;;;;;;;;;;4.90;100.00;98201.88;5066493;28;20368;-79
2021/01/28 10:27:45;;;;;;;;;;;;;;;4.85;100.00;98205.06;5051866;28;19931;-78
2021/01/28 10:30:15;;;;;;;;;;;;;;;4.73;100.00;98202.78;5048723;28;20620;-78
2021/01/28 10:32:53;;;;;;;;;;;;;;;4.68;100.00;98200.44;5050638;28;19928;-80
2021/01/28 10:35:21;;;;;;;;;;;;;;;4.74;100.00;98204.34;5051580;28;19931;-80
2021/01/28 10:37:48;;;;;;;;;;;;;;;4.66;100.00;98210.34;5048826;28;19929;-84
2021/01/28 10:40:16;;;;;;;;;;;;;;;4.63;100.00;98192.59;5047278;28;19931;-78
2021/01/28 10:42:43;;;;;;;;;;;;;;;4.60;100.00;98196.16;5049264;28;20515;-78
2021/01/28 10:45:12;;;;;;;;;;;;;;;4.50;100.00;98199.00;5048283;28;20273;-79
2021/01/28 10:47:39;;;;;;;;;;;;;;;4.65;100.00;98192.94;5051043;28;19925;-80
2021/01/28 10:50:09;;;;;;;;;;;;;;;4.52;100.00;98191.84;5051073;28;20007;-79
2021/01/28 10:52:36;;;;;;;;;;;;;;;4.74;100.00;98184.97;5048532;28;19971;-78
2021/01/28 10:55:05;;;;;;;;;;;;;;;4.74;100.00;98184.22;5049942;28;20024;-77
2021/01/28 10:57:32;;;;;;;;;;;;;;;4.84;100.00;98214.56;5049582;28;19925;-79
2021/01/28 10:59:59;;;;;;;;;;;;;;;4.98;100.00;98214.44;5051243;28;19955;-79
2021/01/28 11:02:26;;;;;;;;;;;;;;;4.94;100.00;98219.25;5046460;28;20260;-79
2021/01/28 11:04:52;;;;;;;;;;;;;;;4.75;100.00;98211.47;5051264;28;19967;-79
2021/01/28 11:07:19;;;;;;;;;;;;;;;5.03;100.00;98211.25;5050883;28;19959;-79
2021/01/28 11:09:53;;;;;;;;;;;;;;;5.14;100.00;98200.91;5049974;28;19928;-79
2021/01/28 11:12:20;;;;;;;;;;;;;;;5.13;100.00;98204.06;5050221;28;20449;-78
2021/01/28 11:14:46;;;;;;;;;;;;;;;5.21;100.00;98222.97;5048725;28;20115;-79
2021/01/28 11:17:13;;;;;;;;;;;;;;;5.25;100.00;98218.22;5049584;28;19925;-77
2021/01/28 11:19:40;;;;;;;;;;;;;;;5.41;100.00;98226.78;5047864;28;19929;-79
2021/01/28 11:22:16;;;;;;;;;;;;;;;5.21;100.00;98220.22;5049334;28;19931;-77
2021/01/28 11:24:42;;;;;;;;;;;;;;;5.59;100.00;98224.63;5049701;28;19928;-79
2021/01/28 11:27:09;;;;;;;;;;;;;;;6.12;100.00;98231.63;5047710;28;19925;-79
2021/01/28 11:29:36;;;;;;;;;;;;;;;6.97;100.00;98223.72;5049874;28;19932;-79
2021/01/28 11:32:03;;;;;;;;;;;;;;;7.10;100.00;98214.38;5046261;28;19928;-79
2021/01/28 11:34:30;;;;;;;;;;;;;;;7.38;100.00;98202.03;5050453;28;19929;-79
2021/01/28 11:36:56;;;;;;;;;;;;;;;7.45;100.00;98212.25;5048309;28;20311;-78
2021/01/28 11:39:23;;;;;;;;;;;;;;;7.55;100.00;98205.72;5047594;28;19925;-78
2021/01/28 11:41:50;;;;;;;;;;;;;;;7.61;100.00;98209.59;5049840;28;20311;-80
2021/01/28 11:44:16;;;;;;;;;;;;;;;7.71;100.00;98212.16;5047312;28;20364;-79
2021/01/28 11:46:45;;;;;;;;;;;;;;;7.78;100.00;98187.03;5050058;28;20605;-78
2021/01/28 11:49:13;;;;;;;;;;;;;;;7.83;100.00;98206.00;5049313;28;19925;-78
2021/01/28 11:51:40;;;;;;;;;;;;;;;7.87;100.00;98198.38;5049163;28;19972;-79
2021/01/28 11:54:06;;;;;;;;;;;;;;;7.97;100.00;98205.72;5047371;28;19979;-79
2021/01/28 11:56:33;;;;;;;;;;;;;;;8.02;100.00;98213.59;5049155;28;20380;-78
2021/01/28 11:59:00;;;;;;;;;;;;;;;8.08;100.00;98209.09;5050610;28;20352;-81
2021/01/28 12:01:28;;;;;;;;;;;;;;;8.15;99.63;98230.44;5046527;28;20320;-79
2021/01/28 12:04:04;;;;;;;;;;;;;;;8.19;98.09;98233.94;5045653;28;19933;-79
2021/01/28 12:06:30;;;;;;;;;;;;;;;8.19;97.50;98222.78;5049591;28;19925;-80
2021/01/28 12:08:57;;;;;;;;;;;;;;;8.22;96.68;98239.47;5047459;28;19929;-79
2021/01/28 12:11:25;;;;;;;;;;;;;;;8.29;95.81;98249.66;5049248;28;20433;-80
2021/01/28 12:13:53;;;;;;;;;;;;;;;8.37;94.88;98251.09;5049745;28;19929;-80
2021/01/28 12:16:21;;;;;;;;;;;;;;;8.36;95.03;98243.97;5046377;28;20440;-79
2021/01/28 12:18:47;;;;;;;;;;;;;;;8.38;94.35;98261.78;5049415;28;19970;-79
2021/01/28 12:21:14;;;;;;;;;;;;;;;8.33;94.76;98270.63;5047643;28;20654;-79
2021/01/28 12:23:40;;;;;;;;;;;;;;;8.31;94.91;98270.28;5049437;28;19924;-80
2021/01/28 12:26:07;;;;;;;;;;;;;;;8.26;95.10;98276.34;5050657;28;19924;-80
2021/01/28 12:28:34;;;;;;;;;;;;;;;8.28;95.10;98254.44;5049837;28;19978;-80
2021/01/28 12:31:00;;;;;;;;;;;;;;;8.31;94.84;98270.28;5049704;28;19940;-81
2021/01/28 12:33:30;;;;;;;;;;;;;;;8.34;93.96;98258.31;5050671;28;19933;-81
2021/01/28 12:35:56;;;;;;;;;;;;;;;8.41;92.32;98280.41;5059901;28;20452;-80
2021/01/28 12:38:23;;;;;;;;;;;;;;;8.44;91.24;98262.88;5052093;28;19924;-80
2021/01/28 12:40:50;;;;;;;;;;;;;;;8.46;90.81;98268.00;5064588;28;19947;-81
2021/01/28 12:43:17;;;;;;;;;;;;;;;8.51;90.16;98262.72;5053700;28;19925;-80
2021/01/28 12:45:43;;;;;;;;;;;;;;;8.57;90.13;98274.91;5052760;28;19925;-80
2021/01/28 12:48:10;;;;;;;;;;;;;;;8.59;90.24;98280.06;5050533;28;19925;-80
2021/01/28 12:50:37;;;;;;;;;;;;;;;8.61;89.67;98284.00;5059906;28;19947;-81
2021/01/28 12:53:03;;;;;;;;;;;;;;;8.68;89.03;98286.63;5067272;28;19924;-81
2021/01/28 12:55:30;;;;;;;;;;;;;;;8.67;88.72;98293.41;5060448;28;19929;-81
2021/01/28 12:57:57;;;;;;;;;;;;;;;8.61;88.66;98286.78;5061803;28;19959;-81
2021/01/28 13:00:24;;;;;;;;;;;;;;;8.55;89.11;98282.94;5052682;28;19932;-81
2021/01/28 13:02:51;;;;;;;;;;;;;;;8.51;89.61;98284.22;5088788;28;19929;-81
2021/01/28 13:05:18;;;;;;;;;;;;;;;8.50;89.74;98289.00;5054099;28;19966;-81
2021/01/28 13:07:45;;;;;;;;;;;;;;;8.45;89.96;98285.94;5052746;28;19925;-81
2021/01/28 13:10:12;;;;;;;;;;;;;;;8.41;90.19;98302.69;5053873;28;19932;-80
2021/01/28 13:12:39;;;;;;;;;;;;;;;8.39;91.02;98316.25;5035780;28;19936;-79
2021/01/28 13:15:07;;;;;;;;;;;;;;;8.41;91.37;98315.81;5051985;28;20074;-78
2021/01/28 13:17:34;;;;;;;;;;;;;;;8.39;91.68;98316.25;5054910;28;19924;-79
2021/01/28 13:20:00;;;;;;;;;;;;;;;8.40;91.33;98317.84;5056960;28;20276;-79
2021/01/28 13:22:27;;;;;;;;;;;;;;;8.39;91.41;98316.25;5022765;28;19980;-82
2021/01/28 13:24:53;;;;;;;;;;;;;;;8.39;91.32;98305.09;5089519;28;19967;-79